Elm River, Illinois
Current Conditions -  °F | °C
As of 3:55 AM on Sunday 21 Dec 2014 (Local Time) from KFWC Reporting Station
Clear Clear  
Wind Chill: 28°   Ceiling: Unl
Heat Index: 28°   Visibility: 7mi
Dew Point: 26°   Wind: 0mph
Humidity: 91%   Direction: NA
Pressure: 30.25"   Gusts: NA
Location:  38.4399°N, 88.4246°W
Report Text: KFWC 210955Z AUTO 00000KT 7SM CLR M02/M03 A3025 RMK AO1 T10221035
Loading
Personal Weather Stations






























Interactive Weather Map New forecast layout! Learn more

10-Day Weather Forecast

Advertisements
Track Severe Weather on mobile